Time;durP1;ratioP1;P1;durP2;ratioP2;P2;SDS_P1;SDS_P2;PMS_P1;PMS_P2;Temp;Humidity;BMP_temperature;BMP_pressure;BME280_temperature;BME280_humidity;BME280_pressure;Samples;Min_cycle;Max_cycle;Signal;HPM_P1;HPM_P2
2022/07/09 00:00:46;;;;;;;4.73;1.40;;;;;;;;;;5018725;28;20282;-59
2022/07/09 00:03:14;;;;;;;3.83;2.13;;;;;;;;;;5013426;28;20700;-59
2022/07/09 00:05:43;;;;;;;4.60;1.30;;;;;;;;;;5015222;28;20202;-59
2022/07/09 00:08:11;;;;;;;2.07;1.60;;;;;;;;;;5017557;28;20197;-59
2022/07/09 00:10:39;;;;;;;2.97;1.53;;;;;;;;;;5016955;28;20206;-59
2022/07/09 00:13:07;;;;;;;2.60;1.37;;;;;;;;;;5015315;28;20218;-59
2022/07/09 00:15:35;;;;;;;2.60;1.43;;;;;;;;;;5013784;28;20245;-59
2022/07/09 00:18:04;;;;;;;2.27;1.80;;;;;;;;;;5015938;28;20198;-59
2022/07/09 00:20:32;;;;;;;3.00;1.80;;;;;;;;;;5015742;28;20209;-59
2022/07/09 00:23:00;;;;;;;2.70;1.60;;;;;;;;;;5017977;28;20336;-59
2022/07/09 00:25:28;;;;;;;3.40;1.60;;;;;;;;;;5018255;28;20203;-59
2022/07/09 00:27:56;;;;;;;4.20;2.57;;;;;;;;;;5015819;28;20265;-59
2022/07/09 00:30:24;;;;;;;3.93;1.60;;;;;;;;;;5009128;28;20246;-59
2022/07/09 00:32:52;;;;;;;3.07;1.70;;;;;;;;;;5011911;28;20202;-59
2022/07/09 00:35:21;;;;;;;1.70;1.60;;;;;;;;;;5007702;28;20285;-59
2022/07/09 00:37:49;;;;;;;2.67;1.30;;;;;;;;;;4998573;28;20241;-59
2022/07/09 00:40:17;;;;;;;4.67;1.73;;;;;;;;;;4999187;28;20747;-59
2022/07/09 00:42:45;;;;;;;4.37;1.67;;;;;;;;;;4999130;28;20253;-59
2022/07/09 00:45:13;;;;;;;2.37;2.03;;;;;;;;;;4999520;28;20209;-59
2022/07/09 00:47:41;;;;;;;4.23;2.40;;;;;;;;;;4999299;28;20240;-59
2022/07/09 00:50:10;;;;;;;2.63;1.40;;;;;;;;;;4999280;28;20330;-59
2022/07/09 00:52:39;;;;;;;2.60;1.60;;;;;;;;;;4998740;28;20210;-59
2022/07/09 00:55:08;;;;;;;3.77;1.60;;;;;;;;;;4999411;28;20210;-59
2022/07/09 00:57:36;;;;;;;3.27;2.00;;;;;;;;;;4999233;28;20210;-59
2022/07/09 01:00:04;;;;;;;4.13;1.50;;;;;;;;;;4998930;28;20274;-59
2022/07/09 01:02:32;;;;;;;2.20;1.53;;;;;;;;;;5006147;28;20210;-59
2022/07/09 01:05:00;;;;;;;3.00;1.50;;;;;;;;;;5018452;28;20752;-59
2022/07/09 01:07:28;;;;;;;5.60;2.03;;;;;;;;;;5018627;28;20206;-59
2022/07/09 01:09:59;;;;;;;2.57;1.70;;;;;;;;;;5018450;28;20230;-59
2022/07/09 01:12:27;;;;;;;3.40;1.53;;;;;;;;;;5018694;28;20214;-59
2022/07/09 01:14:55;;;;;;;3.80;1.60;;;;;;;;;;5018751;28;20385;-59
2022/07/09 01:17:23;;;;;;;3.03;1.50;;;;;;;;;;5018385;28;20213;-59
2022/07/09 01:19:51;;;;;;;3.23;1.50;;;;;;;;;;5018253;28;20590;-59
2022/07/09 01:22:20;;;;;;;2.80;1.70;;;;;;;;;;5017481;28;20581;-59
2022/07/09 01:24:49;;;;;;;1.67;1.50;;;;;;;;;;5002959;28;20274;-59
2022/07/09 01:27:17;;;;;;;2.03;1.40;;;;;;;;;;4998602;28;20574;-59
2022/07/09 01:29:49;;;;;;;6.97;2.10;;;;;;;;;;4998804;28;20214;-59
2022/07/09 01:32:17;;;;;;;3.53;1.83;;;;;;;;;;5011145;28;20270;-59
2022/07/09 01:34:45;;;;;;;3.23;1.40;;;;;;;;;;5007122;28;20242;-58
2022/07/09 01:37:14;;;;;;;4.10;1.60;;;;;;;;;;4998070;28;20212;-59
2022/07/09 01:39:51;;;;;;;3.27;1.70;;;;;;;;;;4998410;28;20267;-59
2022/07/09 01:42:19;;;;;;;3.60;2.20;;;;;;;;;;4998559;28;20214;-59
2022/07/09 01:44:48;;;;;;;5.10;1.90;;;;;;;;;;4998395;28;20573;-59
2022/07/09 01:47:16;;;;;;;3.73;2.03;;;;;;;;;;4998253;28;21648;-59
2022/07/09 01:49:43;;;;;;;4.53;1.73;;;;;;;;;;4998314;28;20596;-59
2022/07/09 01:52:11;;;;;;;7.07;1.73;;;;;;;;;;4998182;28;20237;-59
2022/07/09 01:54:39;;;;;;;5.77;2.30;;;;;;;;;;4998124;28;20239;-59
2022/07/09 01:57:09;;;;;;;4.27;1.80;;;;;;;;;;4997906;28;20210;-59
2022/07/09 01:59:37;;;;;;;3.90;1.50;;;;;;;;;;4998139;28;20286;-59
2022/07/09 02:02:05;;;;;;;4.47;1.60;;;;;;;;;;4998359;28;20215;-59
2022/07/09 02:04:33;;;;;;;2.30;1.53;;;;;;;;;;4998470;28;20241;-59
2022/07/09 02:07:01;;;;;;;6.40;2.17;;;;;;;;;;4998190;28;20291;-59
2022/07/09 02:09:29;;;;;;;5.73;1.77;;;;;;;;;;4998116;28;20691;-59
2022/07/09 02:11:57;;;;;;;2.60;1.50;;;;;;;;;;4997870;28;20649;-59
2022/07/09 02:14:26;;;;;;;1.20;1.20;;;;;;;;;;4997910;28;20236;-59
2022/07/09 02:16:54;;;;;;;3.13;1.70;;;;;;;;;;4998333;28;20213;-59
2022/07/09 02:19:23;;;;;;;3.00;1.60;;;;;;;;;;4997934;28;20273;-59
2022/07/09 02:21:51;;;;;;;1.57;1.47;;;;;;;;;;4998006;28;20244;-59
2022/07/09 02:24:19;;;;;;;2.00;1.90;;;;;;;;;;5023992;28;20234;-59
2022/07/09 02:26:47;;;;;;;2.60;1.60;;;;;;;;;;4998065;28;20240;-59
2022/07/09 02:29:15;;;;;;;4.30;1.70;;;;;;;;;;4998120;28;20238;-59
2022/07/09 02:31:44;;;;;;;1.73;1.60;;;;;;;;;;5006185;28;20237;-59
2022/07/09 02:34:12;;;;;;;2.63;1.77;;;;;;;;;;5013677;28;20253;-59
2022/07/09 02:36:40;;;;;;;5.43;1.90;;;;;;;;;;5000335;28;20234;-59
2022/07/09 02:39:08;;;;;;;4.23;1.50;;;;;;;;;;5000610;28;20236;-59
2022/07/09 02:41:36;;;;;;;1.57;1.43;;;;;;;;;;5001563;28;20295;-59
2022/07/09 02:44:04;;;;;;;6.93;2.10;;;;;;;;;;5008523;28;20228;-59
2022/07/09 02:46:32;;;;;;;4.40;1.83;;;;;;;;;;5021149;28;20218;-59
2022/07/09 02:49:02;;;;;;;9.33;1.80;;;;;;;;;;5021473;28;20213;-59
2022/07/09 02:51:30;;;;;;;3.10;1.50;;;;;;;;;;5021044;28;20208;-59
2022/07/09 02:53:58;;;;;;;3.07;1.47;;;;;;;;;;5020935;28;20295;-59
2022/07/09 02:56:26;;;;;;;3.10;1.37;;;;;;;;;;5020706;28;20210;-59
2022/07/09 02:58:54;;;;;;;3.00;1.60;;;;;;;;;;5020835;28;20607;-59
2022/07/09 03:01:22;;;;;;;1.87;1.77;;;;;;;;;;5020787;28;20267;-59
2022/07/09 03:03:50;;;;;;;3.70;1.57;;;;;;;;;;5020646;28;20255;-59
2022/07/09 03:06:19;;;;;;;3.00;1.50;;;;;;;;;;5019870;28;20887;-59
2022/07/09 03:08:48;;;;;;;1.50;1.40;;;;;;;;;;5018974;28;20204;-56
2022/07/09 03:11:16;;;;;;;8.87;1.83;;;;;;;;;;5018604;28;20738;-58
2022/07/09 03:13:44;;;;;;;2.40;1.80;;;;;;;;;;5019033;28;20260;-57
2022/07/09 03:16:12;;;;;;;3.20;1.57;;;;;;;;;;5019000;28;20242;-56
2022/07/09 03:18:40;;;;;;;2.60;2.17;;;;;;;;;;5018970;28;20223;-58
2022/07/09 03:21:11;;;;;;;4.53;1.63;;;;;;;;;;5019004;28;20258;-56
2022/07/09 03:23:40;;;;;;;4.83;1.53;;;;;;;;;;5028473;28;20227;-57
2022/07/09 03:26:08;;;;;;;3.67;1.80;;;;;;;;;;5002235;28;20209;-58
2022/07/09 03:28:36;;;;;;;2.20;1.47;;;;;;;;;;5000960;28;20282;-58
2022/07/09 03:31:05;;;;;;;2.10;1.43;;;;;;;;;;5003855;28;20224;-56
2022/07/09 03:33:33;;;;;;;2.73;1.70;;;;;;;;;;5011790;28;20308;-58
2022/07/09 03:36:01;;;;;;;4.17;1.47;;;;;;;;;;5006654;28;20220;-58
2022/07/09 03:38:29;;;;;;;1.47;1.37;;;;;;;;;;5006314;28;20207;-57
2022/07/09 03:40:59;;;;;;;1.87;1.60;;;;;;;;;;5015815;28;20233;-57
2022/07/09 03:43:27;;;;;;;3.10;1.50;;;;;;;;;;5000193;28;20256;-56
2022/07/09 03:45:55;;;;;;;5.50;1.40;;;;;;;;;;5000329;28;20642;-57
2022/07/09 03:48:23;;;;;;;3.97;1.83;;;;;;;;;;5000386;28;20656;-56
2022/07/09 03:50:51;;;;;;;2.17;1.43;;;;;;;;;;5000466;28;20205;-57
2022/07/09 03:53:19;;;;;;;3.47;1.57;;;;;;;;;;5000488;28;20267;-56
2022/07/09 03:55:47;;;;;;;1.23;1.13;;;;;;;;;;5000398;28;20241;-56
2022/07/09 03:58:16;;;;;;;4.03;1.60;;;;;;;;;;5000417;28;20208;-56
2022/07/09 04:00:44;;;;;;;2.50;1.50;;;;;;;;;;5000051;28;20616;-57
2022/07/09 04:03:12;;;;;;;3.73;1.13;;;;;;;;;;5005718;28;20275;-57
2022/07/09 04:05:41;;;;;;;1.60;1.50;;;;;;;;;;5026799;28;20688;-57
2022/07/09 04:08:09;;;;;;;3.50;1.37;;;;;;;;;;5022946;28;20227;-56
2022/07/09 04:10:37;;;;;;;5.00;1.80;;;;;;;;;;5028656;28;20207;-57
2022/07/09 04:13:05;;;;;;;5.63;1.60;;;;;;;;;;5028027;28;20216;-57
2022/07/09 04:15:42;;;;;;;2.63;1.50;;;;;;;;;;5027475;28;20209;-56
2022/07/09 04:18:10;;;;;;;4.33;1.57;;;;;;;;;;5020512;28;20220;-57
2022/07/09 04:20:38;;;;;;;1.47;1.27;;;;;;;;;;5000155;28;20264;-57
2022/07/09 04:23:06;;;;;;;2.33;1.53;;;;;;;;;;5007260;28;20281;-56
2022/07/09 04:25:34;;;;;;;2.00;1.80;;;;;;;;;;5016774;28;20699;-57
2022/07/09 04:28:02;;;;;;;4.60;1.63;;;;;;;;;;5000416;28;20244;-57
2022/07/09 04:30:30;;;;;;;3.83;1.60;;;;;;;;;;5028415;28;20230;-58
2022/07/09 04:33:00;;;;;;;5.03;1.73;;;;;;;;;;5013772;28;20239;-58
2022/07/09 04:35:28;;;;;;;1.70;1.33;;;;;;;;;;5007943;28;20201;-58
2022/07/09 04:37:56;;;;;;;2.47;1.67;;;;;;;;;;4999183;28;20336;-56
2022/07/09 04:40:24;;;;;;;2.50;1.60;;;;;;;;;;4999534;28;20341;-56
2022/07/09 04:42:52;;;;;;;4.17;1.53;;;;;;;;;;4999296;28;20214;-58
2022/07/09 04:45:20;;;;;;;1.80;1.43;;;;;;;;;;4999576;28;20240;-58
2022/07/09 04:47:48;;;;;;;3.40;1.70;;;;;;;;;;4999584;28;20216;-58
2022/07/09 04:50:17;;;;;;;5.07;1.60;;;;;;;;;;4999454;28;20247;-58
2022/07/09 04:52:45;;;;;;;2.27;1.50;;;;;;;;;;4999003;28;20210;-59
2022/07/09 04:55:15;;;;;;;4.30;1.50;;;;;;;;;;4998721;28;20217;-58
2022/07/09 04:57:43;;;;;;;3.07;1.47;;;;;;;;;;5000963;28;20237;-56
2022/07/09 05:00:11;;;;;;;4.53;1.57;;;;;;;;;;5012034;28;20236;-56
2022/07/09 05:02:41;;;;;;;4.33;1.60;;;;;;;;;;5016818;28;20279;-56
2022/07/09 05:05:09;;;;;;;2.70;2.00;;;;;;;;;;5014442;28;20615;-56
2022/07/09 05:07:39;;;;;;;2.83;1.47;;;;;;;;;;5015210;28;20208;-56
2022/07/09 05:10:07;;;;;;;3.20;1.83;;;;;;;;;;5015307;28;20641;-57
2022/07/09 05:12:35;;;;;;;2.33;1.53;;;;;;;;;;5007772;28;20204;-58
2022/07/09 05:15:03;;;;;;;2.80;1.67;;;;;;;;;;4998989;28;20271;-58
2022/07/09 05:17:34;;;;;;;5.97;1.43;;;;;;;;;;4999005;28;20244;-58
2022/07/09 05:20:03;;;;;;;3.40;1.57;;;;;;;;;;4999043;28;20208;-58
2022/07/09 05:22:31;;;;;;;2.00;1.57;;;;;;;;;;4998716;28;20271;-58
2022/07/09 05:25:01;;;;;;;6.03;1.50;;;;;;;;;;5024730;28;20260;-58
2022/07/09 05:27:29;;;;;;;1.47;1.37;;;;;;;;;;4998606;28;20643;-58
2022/07/09 05:29:57;;;;;;;4.47;1.80;;;;;;;;;;5005592;28;20219;-58
2022/07/09 05:32:25;;;;;;;2.50;1.70;;;;;;;;;;5017584;28;20283;-58
2022/07/09 05:34:53;;;;;;;2.33;1.70;;;;;;;;;;5004854;28;20312;-58
2022/07/09 05:37:21;;;;;;;3.13;1.50;;;;;;;;;;5008083;28;20674;-58
2022/07/09 05:39:49;;;;;;;2.83;1.80;;;;;;;;;;5002350;28;20231;-58
2022/07/09 05:42:18;;;;;;;4.33;1.90;;;;;;;;;;5010757;28;20267;-58
2022/07/09 05:44:46;;;;;;;1.73;1.60;;;;;;;;;;5005909;28;20229;-58
2022/07/09 05:47:15;;;;;;;4.13;1.90;;;;;;;;;;4998967;28;20200;-58
2022/07/09 05:49:43;;;;;;;5.70;1.70;;;;;;;;;;4998247;28;20251;-58
2022/07/09 05:52:11;;;;;;;1.73;1.60;;;;;;;;;;5012516;28;20209;-58
2022/07/09 05:54:39;;;;;;;3.73;1.43;;;;;;;;;;5015972;28;20251;-58
2022/07/09 05:57:07;;;;;;;3.97;1.70;;;;;;;;;;5011683;28;20205;-58
2022/07/09 05:59:36;;;;;;;5.43;1.87;;;;;;;;;;5014077;28;20266;-58
2022/07/09 06:02:05;;;;;;;2.03;1.40;;;;;;;;;;5000267;28;20778;-58
2022/07/09 06:04:33;;;;;;;3.13;1.60;;;;;;;;;;4998201;28;20320;-58
2022/07/09 06:07:01;;;;;;;2.07;1.43;;;;;;;;;;4997503;28;20213;-58
2022/07/09 06:09:29;;;;;;;2.47;1.53;;;;;;;;;;4998388;28;20209;-58
2022/07/09 06:11:58;;;;;;;2.13;1.70;;;;;;;;;;4998304;28;20232;-58
2022/07/09 06:14:26;;;;;;;1.50;1.40;;;;;;;;;;4998375;28;20265;-58
2022/07/09 06:16:56;;;;;;;3.43;1.80;;;;;;;;;;4997955;28;20231;-58
2022/07/09 06:19:24;;;;;;;1.70;1.60;;;;;;;;;;4997962;28;20562;-58
2022/07/09 06:21:52;;;;;;;2.57;2.13;;;;;;;;;;5003983;28;20256;-58
2022/07/09 06:24:20;;;;;;;2.80;1.47;;;;;;;;;;5004578;28;20267;-58
2022/07/09 06:26:48;;;;;;;3.83;1.63;;;;;;;;;;4998118;28;20240;-58
2022/07/09 06:29:16;;;;;;;1.53;1.40;;;;;;;;;;4998037;28;20213;-58
2022/07/09 06:31:44;;;;;;;2.70;1.60;;;;;;;;;;5006311;28;20224;-58
2022/07/09 06:34:13;;;;;;;2.10;1.90;;;;;;;;;;5010114;28;20251;-58
2022/07/09 06:36:44;;;;;;;4.13;1.87;;;;;;;;;;4997561;28;20296;-58
2022/07/09 06:42:04;;;;;;;12.27;2.70;;;;;;;;;;4991289;28;20225;-60
2022/07/09 06:44:32;;;;;;;5.73;1.90;;;;;;;;;;4996867;28;20264;-60
2022/07/09 06:47:00;;;;;;;2.77;1.47;;;;;;;;;;4997821;28;20213;-60
2022/07/09 06:49:29;;;;;;;4.20;2.30;;;;;;;;;;4997889;28;20243;-60
2022/07/09 06:51:57;;;;;;;1.30;1.20;;;;;;;;;;4997771;28;20207;-60
2022/07/09 06:54:25;;;;;;;3.23;1.60;;;;;;;;;;4997439;28;20238;-60
2022/07/09 06:56:53;;;;;;;3.13;1.60;;;;;;;;;;4997581;28;20216;-60
2022/07/09 06:59:22;;;;;;;2.60;2.00;;;;;;;;;;5004314;28;20240;-60
2022/07/09 07:01:50;;;;;;;2.87;1.67;;;;;;;;;;5017390;28;20267;-60
2022/07/09 07:04:19;;;;;;;4.37;1.70;;;;;;;;;;5017651;28;20274;-60
2022/07/09 07:06:49;;;;;;;4.57;1.80;;;;;;;;;;5016195;28;20671;-60
2022/07/09 07:09:18;;;;;;;3.70;1.83;;;;;;;;;;5017240;28;20246;-60
2022/07/09 07:11:46;;;;;;;2.13;1.47;;;;;;;;;;5015093;28;20240;-60
2022/07/09 07:14:14;;;;;;;1.73;1.63;;;;;;;;;;5015447;28;20285;-60
2022/07/09 07:16:42;;;;;;;5.57;1.97;;;;;;;;;;5015329;28;20253;-60
2022/07/09 07:19:11;;;;;;;3.83;1.80;;;;;;;;;;5016488;28;20213;-60
2022/07/09 07:21:39;;;;;;;6.97;4.40;;;;;;;;;;5018754;28;20249;-60
2022/07/09 07:24:08;;;;;;;4.43;1.93;;;;;;;;;;5010277;28;20254;-60
2022/07/09 07:26:36;;;;;;;4.13;1.63;;;;;;;;;;5000439;28;20234;-60
2022/07/09 07:29:04;;;;;;;2.83;1.63;;;;;;;;;;5001129;28;20247;-59
2022/07/09 07:31:39;;;;;;;6.03;1.70;;;;;;;;;;5007943;28;20648;-60
2022/07/09 07:34:07;;;;;;;3.20;1.93;;;;;;;;;;5009037;28;20306;-58
2022/07/09 07:36:35;;;;;;;4.03;1.70;;;;;;;;;;5013626;28;20223;-60
2022/07/09 07:39:03;;;;;;;1.93;1.57;;;;;;;;;;5014590;28;20199;-60
2022/07/09 07:41:33;;;;;;;2.10;1.60;;;;;;;;;;5016645;28;20238;-60
2022/07/09 07:44:01;;;;;;;2.83;1.97;;;;;;;;;;5016238;28;20305;-60
2022/07/09 07:46:29;;;;;;;5.50;1.57;;;;;;;;;;5018182;28;20682;-61
2022/07/09 07:48:57;;;;;;;3.33;1.40;;;;;;;;;;5015479;28;20674;-60
2022/07/09 07:51:25;;;;;;;3.67;1.70;;;;;;;;;;5010883;28;20200;-60
2022/07/09 07:53:53;;;;;;;4.77;1.50;;;;;;;;;;5013014;28;20223;-60
2022/07/09 07:56:22;;;;;;;5.63;1.50;;;;;;;;;;5017047;28;20200;-60
2022/07/09 07:58:51;;;;;;;3.60;1.70;;;;;;;;;;5011166;28;20238;-60
2022/07/09 08:01:19;;;;;;;3.63;1.87;;;;;;;;;;5017061;28;20282;-60
2022/07/09 08:03:47;;;;;;;3.73;1.60;;;;;;;;;;5013980;28;20231;-60
2022/07/09 08:06:15;;;;;;;2.53;1.83;;;;;;;;;;5018726;28;20212;-60
2022/07/09 08:08:43;;;;;;;3.70;1.43;;;;;;;;;;5016547;28;20247;-60
2022/07/09 08:11:11;;;;;;;2.60;1.67;;;;;;;;;;5016755;28;20211;-61
2022/07/09 08:13:39;;;;;;;4.60;2.80;;;;;;;;;;5014257;28;20287;-60
2022/07/09 08:16:09;;;;;;;203.60;160.10;;;;;;;;;;5015691;28;20569;-59
2022/07/09 08:18:37;;;;;;;5.83;4.47;;;;;;;;;;5017237;28;20203;-59
2022/07/09 08:21:06;;;;;;;3.20;1.83;;;;;;;;;;5013194;28;20215;-59
2022/07/09 08:23:51;;;;;;;2.00;1.40;;;;;;;;;;5019255;28;20262;-59
2022/07/09 08:26:19;;;;;;;2.03;1.53;;;;;;;;;;5016365;28;20206;-59
2022/07/09 08:28:47;;;;;;;5.03;1.60;;;;;;;;;;5012550;28;20262;-59
2022/07/09 08:31:18;;;;;;;2.63;1.60;;;;;;;;;;5010328;28;20242;-60
2022/07/09 08:33:46;;;;;;;4.57;1.77;;;;;;;;;;5018575;28;20247;-59
2022/07/09 08:36:14;;;;;;;2.83;1.43;;;;;;;;;;5013164;28;20215;-59
2022/07/09 08:38:42;;;;;;;3.93;1.87;;;;;;;;;;5014952;28;20239;-59
2022/07/09 08:41:10;;;;;;;3.93;1.60;;;;;;;;;;5015446;28;20668;-59
2022/07/09 08:43:38;;;;;;;4.60;1.90;;;;;;;;;;5016032;28;20273;-60
2022/07/09 08:46:07;;;;;;;2.17;1.50;;;;;;;;;;5014218;28;20206;-59
2022/07/09 08:48:37;;;;;;;3.60;1.50;;;;;;;;;;5015057;28;20206;-59
2022/07/09 08:51:06;;;;;;;4.83;1.90;;;;;;;;;;5017811;28;20202;-59
2022/07/09 08:53:34;;;;;;;1.87;1.50;;;;;;;;;;5016645;28;20628;-59
2022/07/09 08:56:02;;;;;;;5.33;2.03;;;;;;;;;;5014119;28;20214;-59
2022/07/09 08:58:32;;;;;;;2.73;1.53;;;;;;;;;;5014723;28;20199;-59
2022/07/09 09:01:01;;;;;;;4.17;2.30;;;;;;;;;;5013018;28;20240;-59
2022/07/09 09:03:29;;;;;;;2.27;1.60;;;;;;;;;;5014493;28;20674;-59
2022/07/09 09:06:05;;;;;;;2.10;1.70;;;;;;;;;;5016361;28;20696;-60
2022/07/09 09:08:34;;;;;;;11.43;4.00;;;;;;;;;;5014430;28;20684;-60
2022/07/09 09:11:04;;;;;;;4.00;2.80;;;;;;;;;;5014898;28;20663;-59
2022/07/09 09:13:32;;;;;;;2.60;2.40;;;;;;;;;;5012512;28;20635;-60
2022/07/09 09:16:03;;;;;;;6.93;2.00;;;;;;;;;;5011037;28;20201;-57
2022/07/09 09:18:31;;;;;;;4.90;2.20;;;;;;;;;;5011758;28;20585;-59
2022/07/09 09:21:08;;;;;;;4.03;1.67;;;;;;;;;;5008843;28;20614;-59
2022/07/09 09:23:40;;;;;;;2.43;2.00;;;;;;;;;;5012366;28;20259;-60
2022/07/09 09:26:09;;;;;;;2.80;1.60;;;;;;;;;;5009363;28;20230;-59
2022/07/09 09:28:45;;;;;;;3.77;1.70;;;;;;;;;;5011813;28;20197;-59
2022/07/09 09:31:23;;;;;;;2.60;1.77;;;;;;;;;;5011472;28;20209;-59
2022/07/09 09:33:52;;;;;;;1.67;1.27;;;;;;;;;;5011823;28;20270;-59
2022/07/09 09:36:32;;;;;;;4.63;1.83;;;;;;;;;;5010969;28;20204;-59
2022/07/09 09:39:12;;;;;;;1.97;1.73;;;;;;;;;;5010855;28;20201;-59
2022/07/09 09:41:40;;;;;;;5.87;1.40;;;;;;;;;;5008274;28;20684;-59
2022/07/09 09:44:09;;;;;;;4.87;1.90;;;;;;;;;;5010812;28;20259;-59
2022/07/09 09:46:38;;;;;;;2.23;1.70;;;;;;;;;;5009095;28;20205;-60
2022/07/09 09:49:07;;;;;;;4.17;1.67;;;;;;;;;;5010583;28;20197;-59
2022/07/09 09:51:38;;;;;;;2.77;1.70;;;;;;;;;;5008996;28;20212;-59
2022/07/09 09:54:06;;;;;;;7.53;3.47;;;;;;;;;;5010677;28;20251;-59
2022/07/09 09:56:35;;;;;;;3.27;1.70;;;;;;;;;;5015071;28;20790;-59
2022/07/09 09:59:03;;;;;;;2.00;1.57;;;;;;;;;;5012191;28;20238;-59
2022/07/09 10:01:31;;;;;;;4.20;1.50;;;;;;;;;;5017521;28;20205;-60
2022/07/09 10:03:59;;;;;;;1.90;1.70;;;;;;;;;;5015273;28;20239;-59
2022/07/09 10:06:27;;;;;;;4.90;2.03;;;;;;;;;;5013170;28;20283;-59
2022/07/09 10:08:57;;;;;;;3.20;1.77;;;;;;;;;;5014130;28;20239;-59
2022/07/09 10:11:25;;;;;;;3.23;1.77;;;;;;;;;;5012026;28;20259;-59
2022/07/09 10:13:54;;;;;;;2.00;1.60;;;;;;;;;;5016174;28;20586;-59
2022/07/09 10:16:34;;;;;;;2.67;2.00;;;;;;;;;;5015219;28;20239;-59
2022/07/09 10:19:03;;;;;;;4.37;1.97;;;;;;;;;;5015733;28;20205;-59
2022/07/09 10:21:35;;;;;;;4.20;1.50;;;;;;;;;;5013464;28;20233;-59
2022/07/09 10:24:05;;;;;;;2.00;1.60;;;;;;;;;;5016531;28;20275;-59
2022/07/09 10:26:38;;;;;;;1.93;1.53;;;;;;;;;;5014356;28;20657;-59
2022/07/09 10:29:18;;;;;;;3.33;1.87;;;;;;;;;;5016075;28;20308;-59
2022/07/09 10:31:47;;;;;;;4.23;2.00;;;;;;;;;;5009468;28;20265;-59
2022/07/09 10:34:24;;;;;;;1.80;1.50;;;;;;;;;;5017188;28;20744;-59
2022/07/09 10:36:58;;;;;;;2.60;1.80;;;;;;;;;;5014591;28;20245;-59
2022/07/09 10:39:29;;;;;;;3.53;1.50;;;;;;;;;;5000723;28;20235;-59
2022/07/09 10:42:01;;;;;;;3.87;1.80;;;;;;;;;;5004656;28;20210;-59
2022/07/09 10:44:29;;;;;;;3.67;1.77;;;;;;;;;;5011038;28;20253;-59
2022/07/09 10:46:58;;;;;;;3.67;2.07;;;;;;;;;;5008673;28;20241;-58
2022/07/09 10:49:27;;;;;;;3.70;1.80;;;;;;;;;;5009570;28;20699;-58
2022/07/09 10:51:58;;;;;;;3.70;1.67;;;;;;;;;;5010186;28;20235;-58
2022/07/09 10:54:34;;;;;;;1.90;1.80;;;;;;;;;;5010188;28;20216;-59
2022/07/09 10:57:02;;;;;;;4.37;2.17;;;;;;;;;;5013585;28;20275;-58
2022/07/09 10:59:30;;;;;;;1.93;1.60;;;;;;;;;;5012205;28;20238;-58
2022/07/09 11:01:58;;;;;;;4.03;2.00;;;;;;;;;;5012330;28;20587;-58
2022/07/09 11:04:27;;;;;;;2.87;1.70;;;;;;;;;;5011960;28;20228;-59
2022/07/09 11:06:59;;;;;;;4.70;2.03;;;;;;;;;;5014768;28;20239;-58
2022/07/09 11:09:28;;;;;;;4.97;2.10;;;;;;;;;;5012070;28;20212;-58
2022/07/09 11:11:57;;;;;;;2.93;1.77;;;;;;;;;;5013606;28;20201;-58
2022/07/09 11:14:25;;;;;;;4.60;1.80;;;;;;;;;;5014343;28;20224;-58
2022/07/09 11:16:58;;;;;;;4.67;1.83;;;;;;;;;;5011526;28;20212;-58
2022/07/09 11:19:26;;;;;;;2.53;1.70;;;;;;;;;;5013178;28;20222;-58
2022/07/09 11:22:01;;;;;;;2.43;1.80;;;;;;;;;;5010795;28;20258;-58
2022/07/09 11:24:30;;;;;;;3.10;1.50;;;;;;;;;;5015663;28;20226;-59
2022/07/09 11:27:03;;;;;;;4.70;1.83;;;;;;;;;;5009519;28;20305;-58
2022/07/09 11:29:31;;;;;;;2.60;1.83;;;;;;;;;;5011256;28;20200;-58
2022/07/09 11:32:01;;;;;;;3.03;1.53;;;;;;;;;;5012037;28;20203;-59
2022/07/09 11:34:30;;;;;;;5.10;2.30;;;;;;;;;;5012206;28;20290;-58
2022/07/09 11:36:58;;;;;;;5.17;2.40;;;;;;;;;;5014805;28;20635;-59
2022/07/09 11:39:27;;;;;;;3.07;2.07;;;;;;;;;;5019403;28;20200;-59
2022/07/09 11:41:55;;;;;;;2.10;2.00;;;;;;;;;;5011365;28;20205;-59
2022/07/09 11:44:25;;;;;;;2.03;1.70;;;;;;;;;;5013855;28;20237;-59
2022/07/09 11:47:03;;;;;;;2.70;1.90;;;;;;;;;;5016313;28;20232;-58
2022/07/09 11:49:35;;;;;;;1.67;1.53;;;;;;;;;;5009178;28;20204;-59
2022/07/09 11:52:04;;;;;;;3.53;1.73;;;;;;;;;;5014167;28;20263;-59
2022/07/09 11:54:32;;;;;;;2.17;1.97;;;;;;;;;;5010721;28;20659;-58
2022/07/09 11:57:00;;;;;;;3.13;1.83;;;;;;;;;;5012080;28;20702;-59
2022/07/09 11:59:33;;;;;;;3.30;1.90;;;;;;;;;;5011003;28;20242;-58
2022/07/09 12:02:02;;;;;;;4.00;1.63;;;;;;;;;;5012235;28;20211;-59
2022/07/09 12:04:31;;;;;;;2.00;1.90;;;;;;;;;;5011108;28;20258;-58
2022/07/09 12:06:59;;;;;;;3.43;2.30;;;;;;;;;;5010764;28;20202;-58
2022/07/09 12:09:31;;;;;;;2.70;1.87;;;;;;;;;;5017342;28;20575;-59
2022/07/09 12:12:00;;;;;;;2.90;1.40;;;;;;;;;;5010820;28;20208;-58
2022/07/09 12:14:29;;;;;;;3.00;1.97;;;;;;;;;;5011145;28;20244;-59
2022/07/09 12:16:58;;;;;;;3.67;2.20;;;;;;;;;;5011676;28;20557;-59
2022/07/09 12:19:26;;;;;;;7.30;2.43;;;;;;;;;;5013648;28;20200;-59
2022/07/09 12:21:54;;;;;;;3.23;2.20;;;;;;;;;;5011814;28;20210;-59
2022/07/09 12:24:26;;;;;;;2.00;1.80;;;;;;;;;;5025647;28;20227;-58
2022/07/09 12:26:54;;;;;;;5.70;2.30;;;;;;;;;;4999703;28;20205;-58
2022/07/09 12:29:43;;;;;;;4.93;2.10;;;;;;;;;;4999729;28;20213;-58
2022/07/09 12:32:11;;;;;;;2.23;1.53;;;;;;;;;;5011855;28;20204;-58
2022/07/09 12:34:39;;;;;;;3.00;1.50;;;;;;;;;;5009824;28;20224;-57
2022/07/09 12:37:07;;;;;;;2.63;1.60;;;;;;;;;;5016118;28;20664;-57
2022/07/09 12:39:36;;;;;;;7.40;2.03;;;;;;;;;;5015101;28;20259;-57
2022/07/09 12:42:04;;;;;;;2.30;1.90;;;;;;;;;;5016100;28;20231;-57
2022/07/09 12:44:32;;;;;;;1.43;1.40;;;;;;;;;;5017547;28;20750;-57
2022/07/09 12:47:02;;;;;;;3.23;1.73;;;;;;;;;;5016863;28;20244;-57
2022/07/09 12:49:30;;;;;;;2.17;1.67;;;;;;;;;;5015320;28;20204;-57
2022/07/09 12:51:58;;;;;;;1.97;1.87;;;;;;;;;;5015716;28;20208;-57
2022/07/09 12:54:26;;;;;;;2.10;1.67;;;;;;;;;;5015342;28;20862;-58
2022/07/09 12:56:55;;;;;;;4.03;1.90;;;;;;;;;;5013906;28;20197;-57
2022/07/09 12:59:38;;;;;;;2.63;1.93;;;;;;;;;;5016299;28;20230;-58
2022/07/09 13:02:08;;;;;;;1.90;1.70;;;;;;;;;;5015899;28;20233;-57
2022/07/09 13:04:36;;;;;;;2.47;1.60;;;;;;;;;;5016290;28;20218;-57
2022/07/09 13:07:04;;;;;;;5.23;2.10;;;;;;;;;;5013182;28;20266;-58
2022/07/09 13:09:33;;;;;;;2.47;2.00;;;;;;;;;;5017272;28;20197;-57
2022/07/09 13:12:02;;;;;;;2.37;1.63;;;;;;;;;;5014500;28;20208;-57
2022/07/09 13:14:30;;;;;;;4.53;1.87;;;;;;;;;;5014245;28;20275;-57
2022/07/09 13:16:58;;;;;;;5.00;2.13;;;;;;;;;;5013992;28;20241;-57
2022/07/09 13:19:48;;;;;;;5.93;2.10;;;;;;;;;;5012389;28;20714;-58
2022/07/09 13:22:16;;;;;;;2.37;1.70;;;;;;;;;;5002213;28;20218;-58
2022/07/09 13:24:44;;;;;;;3.63;1.80;;;;;;;;;;4998843;28;20237;-58
2022/07/09 13:27:12;;;;;;;2.63;1.73;;;;;;;;;;4998133;28;20749;-58
2022/07/09 13:29:41;;;;;;;2.03;1.57;;;;;;;;;;4998570;28;20208;-58
2022/07/09 13:32:09;;;;;;;1.60;1.50;;;;;;;;;;5009981;28;20206;-58
2022/07/09 13:34:37;;;;;;;2.67;1.80;;;;;;;;;;5008155;28;20254;-58
2022/07/09 13:37:06;;;;;;;1.67;1.40;;;;;;;;;;4998054;28;20615;-58
2022/07/09 13:39:34;;;;;;;3.20;1.53;;;;;;;;;;4998259;28;20223;-58
2022/07/09 13:42:02;;;;;;;3.50;1.53;;;;;;;;;;4998166;28;20210;-58
2022/07/09 13:44:30;;;;;;;3.50;1.80;;;;;;;;;;5005223;28;20230;-57
2022/07/09 13:46:58;;;;;;;2.47;1.53;;;;;;;;;;5018078;28;20229;-58
2022/07/09 13:49:26;;;;;;;1.57;1.40;;;;;;;;;;5017888;28;20700;-58
2022/07/09 13:51:54;;;;;;;3.63;2.10;;;;;;;;;;5017258;28;20261;-58
2022/07/09 13:54:23;;;;;;;1.80;1.50;;;;;;;;;;5017524;28;20259;-58
2022/07/09 13:56:51;;;;;;;2.57;2.10;;;;;;;;;;5017785;28;20202;-58
2022/07/09 13:59:19;;;;;;;3.73;2.10;;;;;;;;;;5017586;28;20283;-58
2022/07/09 14:01:47;;;;;;;1.77;1.67;;;;;;;;;;5017856;28;20236;-58
2022/07/09 14:04:16;;;;;;;5.20;1.60;;;;;;;;;;5017464;28;20259;-58
2022/07/09 14:06:44;;;;;;;1.70;1.60;;;;;;;;;;5010237;28;20227;-58
2022/07/09 14:09:16;;;;;;;2.75;1.63;;;;;;;;;;4997821;28;20204;-58
2022/07/09 14:11:45;;;;;;;4.53;1.98;;;;;;;;;;4998101;28;20210;-58
2022/07/09 14:14:14;;;;;;;2.83;2.08;;;;;;;;;;4998187;28;20263;-58
2022/07/09 14:16:42;;;;;;;2.08;1.88;;;;;;;;;;4997808;28;20575;-58
2022/07/09 14:19:10;;;;;;;2.88;2.05;;;;;;;;;;4997865;28;20293;-58
2022/07/09 14:21:38;;;;;;;6.32;1.60;;;;;;;;;;4997537;28;20214;-58
2022/07/09 14:24:12;;;;;;;2.58;1.70;;;;;;;;;;4998549;28;20267;-58
2022/07/09 14:26:41;;;;;;;3.22;1.58;;;;;;;;;;4997840;28;20242;-58
2022/07/09 14:29:11;;;;;;;2.38;1.48;;;;;;;;;;5001058;28;20205;-58
2022/07/09 14:31:39;;;;;;;2.00;1.58;;;;;;;;;;5009326;28;20258;-58
2022/07/09 14:34:07;;;;;;;1.92;1.83;;;;;;;;;;5014869;28;20251;-58
2022/07/09 14:36:35;;;;;;;2.67;1.48;;;;;;;;;;5001615;28;20243;-58
2022/07/09 14:39:03;;;;;;;2.50;1.30;;;;;;;;;;5001655;28;20239;-58
2022/07/09 14:41:31;;;;;;;1.37;1.20;;;;;;;;;;5001699;28;20242;-57
2022/07/09 14:43:59;;;;;;;1.87;1.40;;;;;;;;;;5001860;28;20283;-58
2022/07/09 14:46:28;;;;;;;2.70;1.30;;;;;;;;;;5001170;28;20269;-58
2022/07/09 14:48:57;;;;;;;1.60;1.50;;;;;;;;;;5001243;28;20694;-58
2022/07/09 14:51:25;;;;;;;4.03;1.50;;;;;;;;;;5001021;28;20247;-58
2022/07/09 14:53:52;;;;;;;1.53;1.30;;;;;;;;;;5001312;28;20241;-58
2022/07/09 14:56:20;;;;;;;3.00;1.67;;;;;;;;;;5001171;28;20700;-58